Trotwood, Ohio
Current Conditions -  °F | °C
As of 7:36 AM on Monday 24 Nov 2014 (Local Time) from KDAY Reporting Station
Broken Clouds Broken Clouds  
Wind Chill: 61°   Ceiling: 3200
Heat Index: 61°   Visibility: 10mi
Dew Point: 54°   Wind: 24mph
Humidity: 78%   Direction: 190°S
Pressure: 29.26"   Gusts: 33mph
Location:  39.8348°N, 84.2576°W
Report Text: KDAY 241236Z 19021G29KT 10SM SCT025 BKN032 BKN039 16/12 A2926 RMK AO2 PK WND 18029/1228 CIG 025 RWY 6L T01610122
Loading
Personal Weather Stations






























Interactive Weather Map New forecast layout! Learn more

10-Day Weather Forecast

Advertisements
Track Severe Weather on mobile